createdAt,value
2022-08-30T00:01:59.944Z,96026.66
2022-08-30T00:04:26.657Z,96023.41
2022-08-30T00:06:53.342Z,96029.72
2022-08-30T00:09:21.109Z,96025.25
2022-08-30T00:11:52.047Z,96027.97
2022-08-30T00:14:20.360Z,96023.63
2022-08-30T00:16:47.037Z,96031.81
2022-08-30T00:19:13.752Z,96030.72
2022-08-30T00:21:40.712Z,96029.47
2022-08-30T00:24:07.996Z,96027.56
2022-08-30T00:26:34.613Z,96023.84
2022-08-30T00:29:01.239Z,96031.09
2022-08-30T00:31:28.069Z,96022.22
2022-08-30T00:33:54.694Z,96029.84
2022-08-30T00:36:21.405Z,96029.97
2022-08-30T00:38:48.004Z,96027.81
2022-08-30T00:41:14.747Z,96026.41
2022-08-30T00:43:41.989Z,96028.47
2022-08-30T00:46:10.258Z,96033.44
2022-08-30T00:48:44.774Z,96032.72
2022-08-30T00:51:14.133Z,96040.44
2022-08-30T00:53:44.730Z,96033.75
2022-08-30T00:56:11.517Z,96034.81
2022-08-30T00:58:42.616Z,96041.34
2022-08-30T01:01:09.558Z,96033.34
2022-08-30T01:03:38.115Z,96044.75
2022-08-30T01:06:05.776Z,96042.84
2022-08-30T01:08:32.408Z,96033.00
2022-08-30T01:11:00.480Z,96036.69
2022-08-30T01:13:29.365Z,96038.50
2022-08-30T01:15:56.318Z,96037.22
2022-08-30T01:18:24.012Z,96033.72
2022-08-30T01:21:18.916Z,96038.00
2022-08-30T01:23:48.952Z,96027.19
2022-08-30T01:26:17.351Z,96029.22
2022-08-30T01:28:49.845Z,96028.66
2022-08-30T01:31:16.759Z,96039.22
2022-08-30T01:33:43.680Z,96025.06
2022-08-30T01:36:13.508Z,96034.81
2022-08-30T01:38:50.089Z,96030.78
2022-08-30T01:41:20.795Z,96031.34
2022-08-30T01:43:49.239Z,96033.00
2022-08-30T01:46:17.893Z,96036.28
2022-08-30T01:48:53.077Z,96029.28
2022-08-30T01:51:23.145Z,96027.19
2022-08-30T01:53:50.279Z,96027.81
2022-08-30T01:56:17.647Z,96029.75
2022-08-30T01:58:44.655Z,96030.78
2022-08-30T02:01:14.488Z,96029.44
2022-08-30T02:03:43.329Z,96040.19
2022-08-30T02:06:13.299Z,96031.88
2022-08-30T02:08:41.002Z,96041.13
2022-08-30T02:11:09.282Z,96033.00
2022-08-30T02:13:40.260Z,96025.81
2022-08-30T02:16:09.240Z,96029.25
2022-08-30T02:18:37.284Z,96031.16
2022-08-30T02:21:03.884Z,96032.81
2022-08-30T02:23:31.316Z,96025.66
2022-08-30T02:25:57.943Z,96030.59
2022-08-30T02:28:25.791Z,96032.41
2022-08-30T02:30:53.438Z,96036.06
2022-08-30T02:33:20.393Z,96027.13
2022-08-30T02:35:47.146Z,96024.94
2022-08-30T02:38:14.520Z,96019.53
2022-08-30T02:40:41.512Z,96020.63
2022-08-30T02:43:08.125Z,96020.69
2022-08-30T02:45:34.822Z,96027.06
2022-08-30T02:48:01.570Z,96012.06
2022-08-30T02:50:28.200Z,96014.09
2022-08-30T02:52:55.543Z,96017.09
2022-08-30T02:55:22.907Z,96014.69
2022-08-30T02:57:49.587Z,96011.66
2022-08-30T03:00:19.624Z,96008.75
2022-08-30T03:02:46.691Z,96003.91
2022-08-30T03:05:15.493Z,96001.75
2022-08-30T03:07:43.018Z,96000.81
2022-08-30T03:10:10.873Z,95997.44
2022-08-30T03:12:38.349Z,95996.47
2022-08-30T03:15:06.652Z,95997.72
2022-08-30T03:17:33.336Z,95997.75
2022-08-30T03:20:00.841Z,95996.19
2022-08-30T03:22:28.778Z,95991.41
2022-08-30T03:24:59.631Z,95989.69
2022-08-30T03:27:27.170Z,95992.84
2022-08-30T03:29:53.842Z,95987.81
2022-08-30T03:32:21.159Z,95988.56
2022-08-30T03:34:47.798Z,95982.50
2022-08-30T03:37:14.372Z,95982.13
2022-08-30T03:39:41.029Z,95992.16
2022-08-30T03:42:07.746Z,95987.19
2022-08-30T03:44:35.623Z,95993.28
2022-08-30T03:47:03.800Z,95993.31
2022-08-30T03:49:31.314Z,95990.06
2022-08-30T03:51:57.884Z,95991.34
2022-08-30T03:54:24.900Z,95994.56
2022-08-30T03:56:51.852Z,95986.78
2022-08-30T03:59:18.460Z,95983.53
2022-08-30T04:01:45.844Z,95996.50
2022-08-30T04:04:15.356Z,95996.28
2022-08-30T04:06:44.090Z,95988.88
2022-08-30T04:09:10.814Z,95990.22
2022-08-30T04:11:37.835Z,95990.28
2022-08-30T04:14:04.534Z,95985.13
2022-08-30T04:16:31.164Z,95989.13
2022-08-30T04:18:57.953Z,95987.75
2022-08-30T04:21:24.633Z,95987.97
2022-08-30T04:23:51.199Z,96000.00
2022-08-30T04:26:17.850Z,96004.81
2022-08-30T04:28:44.421Z,96002.34
2022-08-30T04:31:13.118Z,95996.88
2022-08-30T04:33:42.285Z,95998.81
2022-08-30T04:36:10.328Z,96006.19
2022-08-30T04:38:38.110Z,96006.16
2022-08-30T04:41:16.394Z,96003.94
2022-08-30T04:43:49.351Z,96004.34
2022-08-30T04:46:16.461Z,95996.53
2022-08-30T04:48:43.371Z,96008.34
2022-08-30T04:51:12.826Z,96006.88
2022-08-30T04:53:40.930Z,96016.16
2022-08-30T04:56:10.195Z,96013.94
2022-08-30T04:58:37.290Z,96019.13
2022-08-30T05:01:04.856Z,96022.69
2022-08-30T05:03:31.482Z,96019.47
2022-08-30T05:05:58.331Z,96023.75
2022-08-30T05:08:25.111Z,96037.34
2022-08-30T05:10:52.865Z,96030.38
2022-08-30T05:13:21.300Z,96040.16
2022-08-30T05:16:02.993Z,96032.69
2022-08-30T05:18:29.821Z,96040.00
2022-08-30T05:21:07.395Z,96038.94
2022-08-30T05:23:34.183Z,96050.53
2022-08-30T05:26:06.110Z,96049.78
2022-08-30T05:28:33.526Z,96056.41
2022-08-30T05:31:00.408Z,96051.50
2022-08-30T05:33:27.128Z,96038.13
2022-08-30T05:35:53.738Z,96040.41
2022-08-30T05:38:20.340Z,96039.41
2022-08-30T05:40:50.139Z,96029.84
2022-08-30T05:43:16.732Z,96030.88
2022-08-30T05:45:43.348Z,96038.41
2022-08-30T05:48:10.002Z,96032.84
2022-08-30T05:50:40.032Z,96036.41
2022-08-30T05:53:06.844Z,96041.28
2022-08-30T05:55:33.473Z,96034.97
2022-08-30T05:58:00.882Z,96027.31
2022-08-30T06:00:30.252Z,96027.13
2022-08-30T06:02:57.039Z,96026.44
2022-08-30T06:05:23.832Z,96026.31
2022-08-30T06:07:50.523Z,96033.25
2022-08-30T06:10:17.312Z,96031.13
2022-08-30T06:12:44.068Z,96032.00
2022-08-30T06:15:11.520Z,96039.22
2022-08-30T06:17:39.650Z,96036.38
2022-08-30T06:20:06.929Z,96039.84
2022-08-30T06:22:33.560Z,96044.13
2022-08-30T06:25:00.270Z,96043.50
2022-08-30T06:27:27.138Z,96040.31
2022-08-30T06:29:53.864Z,96037.97
2022-08-30T06:32:20.577Z,96035.09
2022-08-30T06:34:48.272Z,96044.03
2022-08-30T06:37:29.134Z,96046.75
2022-08-30T06:39:57.719Z,96034.53
2022-08-30T06:42:30.457Z,96040.66
2022-08-30T06:44:57.872Z,96047.00
2022-08-30T06:47:24.546Z,96052.91
2022-08-30T06:49:51.148Z,96047.63
2022-08-30T06:52:17.811Z,96046.94
2022-08-30T06:54:45.801Z,96042.63
2022-08-30T06:57:12.875Z,96043.59
2022-08-30T06:59:39.915Z,96043.69
2022-08-30T07:02:07.561Z,96039.50
2022-08-30T07:04:34.390Z,96043.84
2022-08-30T07:07:01.027Z,96034.25
2022-08-30T07:09:27.633Z,96037.25
2022-08-30T07:11:54.422Z,96036.69
2022-08-30T07:14:21.496Z,96036.44
2022-08-30T07:16:51.113Z,96030.16
2022-08-30T07:19:20.710Z,96035.19
2022-08-30T07:21:49.238Z,96033.31
2022-08-30T07:24:16.911Z,96036.44
2022-08-30T07:26:48.994Z,96034.13
2022-08-30T07:29:17.950Z,96033.75
2022-08-30T07:31:44.563Z,96032.94
2022-08-30T07:34:11.227Z,96045.16
2022-08-30T07:36:39.125Z,96030.78
2022-08-30T07:39:06.826Z,96037.75
2022-08-30T07:41:38.524Z,96040.94
2022-08-30T07:44:09.016Z,96041.25
2022-08-30T07:46:38.302Z,96038.28
2022-08-30T07:49:05.992Z,96043.06
2022-08-30T07:51:39.016Z,96045.41
2022-08-30T07:54:06.358Z,96033.13
2022-08-30T07:56:32.969Z,96046.28
2022-08-30T07:58:59.553Z,96047.09
2022-08-30T08:01:26.187Z,96038.63
2022-08-30T08:03:52.861Z,96032.91
2022-08-30T08:06:21.563Z,96038.66
2022-08-30T08:08:48.490Z,96033.28
2022-08-30T08:11:26.178Z,96029.59
2022-08-30T08:13:54.687Z,96038.00
2022-08-30T08:16:24.055Z,96030.66
2022-08-30T08:18:51.442Z,96034.69
2022-08-30T08:21:18.084Z,96023.41
2022-08-30T08:23:45.134Z,96032.03
2022-08-30T08:26:11.730Z,96034.06
2022-08-30T08:28:38.407Z,96036.25
2022-08-30T08:31:29.899Z,96033.56
2022-08-30T08:34:02.829Z,96030.78
2022-08-30T08:36:31.271Z,96033.47
2022-08-30T08:38:58.595Z,96035.19
2022-08-30T08:41:34.099Z,96030.88
2022-08-30T08:44:04.092Z,96034.47
2022-08-30T08:46:41.047Z,96033.25
2022-08-30T08:49:12.320Z,96030.88
2022-08-30T08:51:59.003Z,96031.13
2022-08-30T08:54:44.347Z,96031.22
2022-08-30T08:57:13.826Z,96030.13
2022-08-30T08:59:44.946Z,96033.94
2022-08-30T09:02:25.727Z,96022.44
2022-08-30T09:04:57.770Z,96022.28
2022-08-30T09:07:29.627Z,96026.50
2022-08-30T09:09:59.927Z,96009.50
2022-08-30T09:12:27.558Z,96014.47
2022-08-30T09:15:02.660Z,96014.47
2022-08-30T09:17:29.746Z,96012.44
2022-08-30T09:19:56.324Z,96006.91
2022-08-30T09:22:42.449Z,96010.00
2022-08-30T09:25:13.168Z,96006.88
2022-08-30T09:27:48.578Z,96005.38
2022-08-30T09:30:37.326Z,96014.75
2022-08-30T09:33:07.643Z,96006.50
2022-08-30T09:35:42.126Z,96006.75
2022-08-30T09:38:22.278Z,96000.78
2022-08-30T09:40:51.885Z,95998.91
2022-08-30T09:43:18.417Z,96003.91
2022-08-30T09:45:49.706Z,95997.97
2022-08-30T09:48:27.757Z,95993.78
2022-08-30T09:51:42.879Z,95994.06
2022-08-30T09:54:25.818Z,95988.13
2022-08-30T09:57:12.952Z,95992.72
2022-08-30T09:59:48.719Z,95985.75
2022-08-30T10:02:39.353Z,95978.47
2022-08-30T10:05:20.443Z,95985.66
2022-08-30T10:08:17.471Z,95977.22
2022-08-30T10:10:59.279Z,95978.91
2022-08-30T10:13:59.451Z,95973.91
2022-08-30T10:16:34.607Z,95969.97
2022-08-30T10:19:25.266Z,95964.69
2022-08-30T10:21:58.137Z,95954.75
2022-08-30T10:24:33.621Z,95960.94
2022-08-30T10:27:17.816Z,95953.53
2022-08-30T10:29:54.017Z,95951.91
2022-08-30T10:32:39.551Z,95947.03
2022-08-30T10:35:22.967Z,95946.78
2022-08-30T10:37:55.886Z,95950.41
2022-08-30T10:41:01.804Z,95947.63
2022-08-30T10:43:39.023Z,95947.31
2022-08-30T10:46:12.667Z,95940.31
2022-08-30T10:48:47.541Z,95942.28
2022-08-30T10:51:21.681Z,95946.50
2022-08-30T10:54:04.032Z,95942.00
2022-08-30T10:56:31.586Z,95952.97
2022-08-30T10:58:59.659Z,95944.41
2022-08-30T11:01:46.676Z,95949.44
2022-08-30T11:04:45.559Z,95948.44
2022-08-30T11:07:52.237Z,95940.00
2022-08-30T11:10:49.648Z,95952.88
2022-08-30T11:13:26.071Z,95947.00
2022-08-30T11:15:57.429Z,95953.09
2022-08-30T11:18:26.264Z,95957.06
2022-08-30T11:20:56.321Z,95949.75
2022-08-30T11:23:29.109Z,95948.47
2022-08-30T11:26:06.842Z,95951.50
2022-08-30T11:28:36.861Z,95951.44
2022-08-30T11:31:29.825Z,95945.22
2022-08-30T11:33:59.523Z,95942.16
2022-08-30T11:36:37.864Z,95945.28
2022-08-30T11:39:12.925Z,95944.44
2022-08-30T11:41:46.215Z,95950.47
2022-08-30T11:44:31.969Z,95947.78
2022-08-30T11:47:22.500Z,95948.53
2022-08-30T11:50:09.757Z,95949.75
2022-08-30T11:53:01.723Z,95941.00
2022-08-30T11:55:52.496Z,95939.94
2022-08-30T11:58:50.984Z,95938.34
2022-08-30T12:01:49.675Z,95936.16
2022-08-30T12:04:18.009Z,95930.09
2022-08-30T12:06:46.443Z,95924.13
2022-08-30T12:09:25.129Z,95931.72
2022-08-30T12:12:09.681Z,95937.44
2022-08-30T12:14:54.496Z,95932.72
2022-08-30T12:18:00.772Z,95922.41
2022-08-30T12:20:37.938Z,95926.75
2022-08-30T12:23:30.070Z,95916.38
2022-08-30T12:26:25.866Z,95913.88
2022-08-30T12:29:21.220Z,95911.50
2022-08-30T12:31:54.377Z,95918.50
2022-08-30T12:34:33.300Z,95910.03
2022-08-30T12:37:08.483Z,95910.59
2022-08-30T12:39:38.266Z,95910.59
2022-08-30T12:42:19.257Z,95901.59
2022-08-30T12:44:48.405Z,95897.53
2022-08-30T12:47:22.494Z,95902.34
2022-08-30T12:49:50.558Z,95899.59
2022-08-30T12:52:20.320Z,95894.28
2022-08-30T12:54:47.092Z,95899.72
2022-08-30T12:57:34.450Z,95892.22
2022-08-30T13:00:01.905Z,95894.00
2022-08-30T13:02:44.414Z,95891.31
2022-08-30T13:05:32.136Z,95889.72
2022-08-30T13:08:10.615Z,95886.97
2022-08-30T13:10:49.586Z,95880.72
2022-08-30T13:13:28.993Z,95873.44
2022-08-30T13:15:56.092Z,95864.75
2022-08-30T13:18:32.763Z,95874.16
2022-08-30T13:21:18.378Z,95874.66
2022-08-30T13:23:45.015Z,95861.78
2022-08-30T13:26:11.785Z,95869.69
2022-08-30T13:28:48.868Z,95857.69
2022-08-30T13:31:15.916Z,95856.47
2022-08-30T13:33:45.808Z,95867.50
2022-08-30T13:36:15.653Z,95853.91
2022-08-30T13:38:43.123Z,95849.81
2022-08-30T13:41:10.883Z,95853.69
2022-08-30T13:44:09.454Z,95843.81
2022-08-30T13:46:26.641Z,95841.44
2022-08-30T13:49:00.470Z,95845.16
2022-08-30T13:51:28.611Z,95836.16
2022-08-30T13:53:55.372Z,95833.16
2022-08-30T13:56:24.218Z,95829.59
2022-08-30T13:58:51.721Z,95826.19
2022-08-30T14:01:19.613Z,95817.84
2022-08-30T14:06:34.425Z,95819.34
2022-08-30T14:09:04.452Z,95825.75
2022-08-30T14:11:31.472Z,95831.72
2022-08-30T14:16:46.442Z,95817.19
2022-08-30T14:19:15.698Z,95811.53
2022-08-30T14:21:43.360Z,95810.34
2022-08-30T14:24:13.498Z,95815.28
2022-08-30T14:26:45.806Z,95811.31
2022-08-30T14:29:15.260Z,95814.00
2022-08-30T14:31:42.436Z,95820.06
2022-08-30T14:34:11.503Z,95813.78
2022-08-30T14:36:40.440Z,95816.53
2022-08-30T14:39:11.953Z,95813.31
2022-08-30T14:41:45.038Z,95807.28
2022-08-30T14:44:16.199Z,95803.69
2022-08-30T14:46:43.857Z,95808.22
2022-08-30T14:49:12.117Z,95805.38
2022-08-30T14:51:39.324Z,95800.03
2022-08-30T14:54:06.044Z,95805.41
2022-08-30T14:56:32.716Z,95795.59
2022-08-30T14:59:02.624Z,95801.78
2022-08-30T15:01:30.597Z,95793.28
2022-08-30T15:03:58.791Z,95798.84
2022-08-30T15:06:26.573Z,95800.88
2022-08-30T15:08:54.543Z,95791.09
2022-08-30T15:11:23.332Z,95793.63
2022-08-30T15:13:52.876Z,95795.75
2022-08-30T15:16:24.562Z,95791.97
2022-08-30T15:18:51.739Z,95792.59
2022-08-30T15:21:34.288Z,95790.25
2022-08-30T15:24:03.919Z,95792.16
2022-08-30T15:26:30.989Z,95788.59
2022-08-30T15:28:57.930Z,95781.72
2022-08-30T15:31:31.875Z,95783.41
2022-08-30T15:33:58.940Z,95778.03
2022-08-30T15:36:27.481Z,95765.41
2022-08-30T15:38:55.748Z,95762.03
2022-08-30T15:41:23.537Z,95766.56
2022-08-30T15:43:52.707Z,95766.91
2022-08-30T15:46:22.601Z,95762.50
2022-08-30T15:48:51.776Z,95762.31
2022-08-30T15:51:19.115Z,95764.25
2022-08-30T15:53:46.258Z,95757.91
2022-08-30T15:56:13.619Z,95761.06
2022-08-30T15:58:41.448Z,95759.44
2022-08-30T16:01:08.944Z,95761.97
2022-08-30T16:03:37.836Z,95765.84
2022-08-30T16:06:04.707Z,95762.91
2022-08-30T16:08:31.406Z,95763.53
2022-08-30T16:10:58.046Z,95756.03
2022-08-30T16:13:24.614Z,95757.13
2022-08-30T16:15:51.277Z,95764.47
2022-08-30T16:18:17.930Z,95757.66
2022-08-30T16:20:44.817Z,95767.06
2022-08-30T16:23:11.685Z,95762.16
2022-08-30T16:25:40.945Z,95755.25
2022-08-30T16:28:09.477Z,95759.97
2022-08-30T16:30:36.499Z,95758.72
2022-08-30T16:33:03.288Z,95758.06
2022-08-30T16:35:29.895Z,95754.25
2022-08-30T16:37:56.483Z,95752.66
2022-08-30T16:40:23.348Z,95751.44
2022-08-30T16:42:50.679Z,95763.13
2022-08-30T16:45:17.944Z,95757.94
2022-08-30T16:47:45.950Z,95755.03
2022-08-30T16:50:13.129Z,95757.41
2022-08-30T16:52:43.981Z,95751.06
2022-08-30T16:55:11.023Z,95756.81
2022-08-30T16:57:38.596Z,95759.84
2022-08-30T17:00:13.185Z,95755.66
2022-08-30T17:02:40.247Z,95760.53
2022-08-30T17:05:12.151Z,95767.28
2022-08-30T17:07:38.996Z,95775.63
2022-08-30T17:10:06.031Z,95765.50
2022-08-30T17:12:35.618Z,95769.53
2022-08-30T17:15:05.689Z,95775.72
2022-08-30T17:17:32.774Z,95771.75
2022-08-30T17:19:59.492Z,95783.75
2022-08-30T17:22:26.269Z,95776.50
2022-08-30T17:24:53.069Z,95775.72
2022-08-30T17:27:20.040Z,95775.81
2022-08-30T17:29:48.051Z,95773.56
2022-08-30T17:32:14.747Z,95778.16
2022-08-30T17:34:41.494Z,95780.78
2022-08-30T17:37:08.514Z,95779.53
2022-08-30T17:39:36.382Z,95789.00
2022-08-30T17:42:03.312Z,95787.47
2022-08-30T17:44:32.579Z,95779.41
2022-08-30T17:46:59.961Z,95782.38
2022-08-30T17:49:28.008Z,95787.19
2022-08-30T17:51:56.977Z,95784.09
2022-08-30T17:54:25.827Z,95790.88
2022-08-30T17:56:52.947Z,95788.66
2022-08-30T17:59:20.078Z,95796.34
2022-08-30T18:01:52.777Z,95794.53
2022-08-30T18:04:20.452Z,95793.88
2022-08-30T18:06:47.764Z,95793.78
2022-08-30T18:09:14.386Z,95800.28
2022-08-30T18:11:41.058Z,95802.66
2022-08-30T18:14:11.042Z,95803.06
2022-08-30T18:16:38.942Z,95808.13
2022-08-30T18:19:16.758Z,95803.88
2022-08-30T18:21:43.834Z,95801.41
2022-08-30T18:24:10.435Z,95808.88
2022-08-30T18:26:43.065Z,95815.50
2022-08-30T18:29:10.938Z,95815.78
2022-08-30T18:31:37.643Z,95820.41
2022-08-30T18:34:04.269Z,95820.28
2022-08-30T18:36:30.975Z,95826.84
2022-08-30T18:38:58.296Z,95834.78
2022-08-30T18:41:25.576Z,95842.56
2022-08-30T18:44:05.804Z,95841.28
2022-08-30T18:46:45.295Z,95845.13
2022-08-30T18:49:22.590Z,95844.56
2022-08-30T18:51:50.217Z,95853.91
2022-08-30T18:54:17.472Z,95854.31
2022-08-30T18:56:45.921Z,95850.50
2022-08-30T18:59:13.011Z,95851.78
2022-08-30T19:01:40.591Z,95858.94
2022-08-30T19:04:07.768Z,95853.91
2022-08-30T19:06:34.570Z,95856.97
2022-08-30T19:09:01.302Z,95855.00
2022-08-30T19:11:27.991Z,95858.00
2022-08-30T19:13:55.062Z,95864.28
2022-08-30T19:16:22.028Z,95861.66
2022-08-30T19:18:48.920Z,95860.09
2022-08-30T19:21:15.528Z,95863.75
2022-08-30T19:23:43.581Z,95867.53
2022-08-30T19:26:10.767Z,95867.69
2022-08-30T19:28:37.896Z,95870.06
2022-08-30T19:31:06.100Z,95871.88
2022-08-30T19:33:33.634Z,95887.31
2022-08-30T19:36:00.579Z,95884.94
2022-08-30T19:38:27.231Z,95887.59
2022-08-30T19:40:58.929Z,95883.81
2022-08-30T19:43:26.989Z,95886.13
2022-08-30T19:45:55.941Z,95894.28
2022-08-30T19:48:23.706Z,95893.69
2022-08-30T19:50:56.183Z,95884.00
2022-08-30T19:53:24.444Z,95890.88
2022-08-30T19:55:51.672Z,95891.75
2022-08-30T19:58:18.258Z,95886.41
2022-08-30T20:00:54.654Z,95879.47
2022-08-30T20:03:34.375Z,95887.88
2022-08-30T20:06:01.361Z,95877.19
2022-08-30T20:08:30.050Z,95886.19
2022-08-30T20:10:57.123Z,95883.69
2022-08-30T20:13:24.288Z,95892.06
2022-08-30T20:15:56.465Z,95892.31
2022-08-30T20:18:26.013Z,95890.19
2022-08-30T20:20:53.057Z,95883.34
2022-08-30T20:23:23.233Z,95884.50
2022-08-30T20:25:55.388Z,95891.06
2022-08-30T20:28:24.470Z,95888.53
2022-08-30T20:30:52.281Z,95889.56
2022-08-30T20:33:20.286Z,95897.59
2022-08-30T20:35:49.580Z,95894.19
2022-08-30T20:38:24.037Z,95882.56
2022-08-30T20:40:53.434Z,95875.72
2022-08-30T20:43:22.379Z,95876.31
2022-08-30T20:45:49.151Z,95876.44
2022-08-30T20:48:17.585Z,95874.91
2022-08-30T20:50:44.344Z,95873.19
2022-08-30T20:53:12.263Z,95872.38
2022-08-30T20:55:43.870Z,95867.59
2022-08-30T20:58:11.167Z,95864.22
2022-08-30T21:00:38.341Z,95865.69
2022-08-30T21:03:26.300Z,95864.22
2022-08-30T21:05:54.032Z,95861.28
2022-08-30T21:08:20.646Z,95862.97
2022-08-30T21:10:47.853Z,95862.63
2022-08-30T21:13:14.560Z,95862.94
2022-08-30T21:15:45.723Z,95859.00
2022-08-30T21:18:15.873Z,95864.19
2022-08-30T21:20:42.496Z,95858.44
2022-08-30T21:23:09.428Z,95863.28
2022-08-30T21:25:41.376Z,95862.63
2022-08-30T21:28:08.504Z,95862.47
2022-08-30T21:30:35.810Z,95867.31
2022-08-30T21:33:04.139Z,95862.13
2022-08-30T21:35:49.525Z,95864.84
2022-08-30T21:38:16.693Z,95876.84
2022-08-30T21:40:43.755Z,95871.97
2022-08-30T21:43:10.766Z,95881.56
2022-08-30T21:45:39.084Z,95878.81
2022-08-30T21:48:06.049Z,95881.47
2022-08-30T21:50:33.145Z,95875.28
2022-08-30T21:53:00.112Z,95873.19
2022-08-30T21:55:26.743Z,95880.84
2022-08-30T21:57:55.130Z,95886.31
2022-08-30T22:00:22.104Z,95884.72
2022-08-30T22:02:49.205Z,95885.44
2022-08-30T22:05:20.037Z,95881.72
2022-08-30T22:07:46.616Z,95884.13
2022-08-30T22:10:13.568Z,95880.66
2022-08-30T22:12:41.415Z,95881.78
2022-08-30T22:15:09.255Z,95884.75
2022-08-30T22:17:35.961Z,95880.41
2022-08-30T22:20:03.804Z,95880.66
2022-08-30T22:22:30.421Z,95887.50
2022-08-30T22:24:57.063Z,95886.78
2022-08-30T22:27:23.723Z,95885.78
2022-08-30T22:29:50.304Z,95890.50
2022-08-30T22:32:16.937Z,95886.78
2022-08-30T22:34:46.409Z,95885.94
2022-08-30T22:37:13.089Z,95885.28
2022-08-30T22:39:39.713Z,95893.31
2022-08-30T22:42:06.653Z,95891.38
2022-08-30T22:44:33.266Z,95893.63
2022-08-30T22:47:00.777Z,95894.38
2022-08-30T22:49:27.532Z,95895.13
2022-08-30T22:51:54.226Z,95900.94
2022-08-30T22:54:21.900Z,95900.41
2022-08-30T22:56:49.873Z,95901.38
2022-08-30T22:59:16.512Z,95895.91
2022-08-30T23:01:43.382Z,95904.66
2022-08-30T23:04:11.709Z,95901.91
2022-08-30T23:06:38.490Z,95904.38
2022-08-30T23:09:06.692Z,95912.97
2022-08-30T23:11:33.998Z,95920.66
2022-08-30T23:14:02.149Z,95923.31
2022-08-30T23:16:29.603Z,95924.97
2022-08-30T23:18:56.258Z,95924.31
2022-08-30T23:21:26.271Z,95928.84
2022-08-30T23:24:14.239Z,95929.66
2022-08-30T23:27:01.124Z,95928.72
2022-08-30T23:29:48.304Z,95922.91
2022-08-30T23:32:33.597Z,95928.94
2022-08-30T23:35:19.049Z,95930.41
2022-08-30T23:38:04.922Z,95926.44
2022-08-30T23:40:50.157Z,95930.28
2022-08-30T23:43:35.227Z,95929.91
2022-08-30T23:46:20.391Z,95923.03
2022-08-30T23:49:09.339Z,95919.75
2022-08-30T23:51:56.531Z,95924.25
2022-08-30T23:54:42.820Z,95928.34
2022-08-30T23:57:28.039Z,95934.53
